Terminal Aerodrome Forecast
Issued by NWS Omaha/Valley, NE

Home | Current Version | Previous Version | Text Only | Print | Product List | Glossary On
Versions: 1 2 3 4 5 6 7 8 9 10 11 12 13 14 15 16 17 18 19 20 21 22 23 24 25 26 27 28 29 30 31 32 33 34 35 36 37 38 39 40 41 42 43 44 45 46 47 48 49 50
000
FTUS43 KOAX 281403 AAA
TAFOMA
TAF AMD
KOMA 281403Z 2814/2912 14008KT P6SM OVC025
      TEMPO 2814/2817 6SM -RA BR OVC007
     FM281700 16008KT P6SM OVC040
      TEMPO 2821/2901 6SM -SHRA BR OVC025
     FM290800 15008KT 4SM BR OVC015=

USA.gov is the U.S. government's official web portal to all federal, state and local government web resources and services.